Time;durP1;ratioP1;P1;durP2;ratioP2;P2;SDS_P1;SDS_P2;PMS_P1;PMS_P2;Temp;Humidity;BMP_temperature;BMP_pressure;BME280_temperature;BME280_humidity;BME280_pressure;Samples;Min_cycle;Max_cycle;Signal;HPM_P1;HPM_P2
2023/03/16 00:01:05;;;;;;;4.03;3.13;;;0.90;99.90;;;;;;5089311;28;20204;-72
2023/03/16 00:03:30;;;;;;;6.45;3.28;;;0.90;99.90;;;;;;5090639;28;20697;-72
2023/03/16 00:05:56;;;;;;;4.80;3.17;;;0.80;99.90;;;;;;5090586;28;20220;-73
2023/03/16 00:08:21;;;;;;;6.47;3.87;;;0.80;99.90;;;;;;5090492;28;20177;-72
2023/03/16 00:10:47;;;;;;;4.60;2.73;;;0.80;99.90;;;;;;5072041;28;20211;-72
2023/03/16 00:13:17;;;;;;;6.50;3.63;;;0.80;99.90;;;;;;5090453;28;20194;-72
2023/03/16 00:15:51;;;;;;;3.70;2.72;;;0.80;99.90;;;;;;5088954;28;20939;-72
2023/03/16 00:18:17;;;;;;;6.30;3.33;;;0.80;99.90;;;;;;5090300;28;20217;-72
2023/03/16 00:20:42;;;;;;;2.90;2.70;;;0.80;99.90;;;;;;5090123;28;20727;-72
2023/03/16 00:23:08;;;;;;;3.60;2.70;;;0.80;99.90;;;;;;5088913;28;20178;-72
2023/03/16 00:25:34;;;;;;;2.87;2.67;;;0.80;99.90;;;;;;5090209;28;20603;-72
2023/03/16 00:28:02;;;;;;;5.97;3.30;;;0.90;99.90;;;;;;5090411;28;20265;-72
2023/03/16 00:30:31;;;;;;;3.78;3.33;;;0.90;99.90;;;;;;5072436;28;20210;-72
2023/03/16 00:32:57;;;;;;;4.97;3.70;;;0.90;99.90;;;;;;5090196;28;20182;-72
2023/03/16 00:35:23;;;;;;;9.10;2.80;;;0.90;99.90;;;;;;5090021;28;20716;-72
2023/03/16 00:37:49;;;;;;;5.50;3.50;;;0.90;99.90;;;;;;5090214;28;20239;-72
2023/03/16 00:40:15;;;;;;;4.20;2.90;;;0.90;99.90;;;;;;5090008;28;20217;-72
2023/03/16 00:42:41;;;;;;;5.20;3.25;;;0.90;99.90;;;;;;5071692;28;20610;-72
2023/03/16 00:45:07;;;;;;;3.67;3.00;;;0.90;99.90;;;;;;5088762;28;20274;-72
2023/03/16 00:47:33;;;;;;;3.03;2.72;;;0.90;99.90;;;;;;5088466;28;20197;-72
2023/03/16 00:50:01;;;;;;;3.60;3.13;;;1.00;99.90;;;;;;5090008;28;20265;-72
2023/03/16 00:52:27;;;;;;;2.78;2.20;;;1.10;99.90;;;;;;5089972;28;20190;-72
2023/03/16 00:54:54;;;;;;;4.20;2.70;;;1.20;99.90;;;;;;5089945;28;20195;-72
2023/03/16 00:57:23;;;;;;;6.10;3.30;;;1.30;99.90;;;;;;5088286;28;20682;-72
2023/03/16 00:59:49;;;;;;;3.25;2.63;;;1.30;99.90;;;;;;5089856;28;20622;-72
2023/03/16 01:02:16;;;;;;;4.70;3.33;;;1.40;99.90;;;;;;5089699;28;20403;-72
2023/03/16 01:04:42;;;;;;;5.68;3.65;;;1.40;99.90;;;;;;5089277;28;20178;-72
2023/03/16 01:07:11;;;;;;;5.45;4.07;;;1.50;99.90;;;;;;5089708;28;20190;-72
2023/03/16 01:09:41;;;;;;;5.90;4.60;;;1.50;99.90;;;;;;5088118;28;20694;-72
2023/03/16 01:12:09;;;;;;;6.63;5.30;;;1.50;99.90;;;;;;5089523;28;20198;-72
2023/03/16 01:14:36;;;;;;;6.18;5.35;;;1.60;99.90;;;;;;5089571;28;20192;-72
2023/03/16 01:17:03;;;;;;;7.45;5.80;;;1.60;99.90;;;;;;5089474;28;20280;-72
2023/03/16 01:19:29;;;;;;;10.75;6.28;;;1.60;99.90;;;;;;5088003;28;20214;-72
2023/03/16 01:21:54;;;;;;;8.80;6.87;;;1.60;99.90;;;;;;5089287;28;20206;-72
2023/03/16 01:24:20;;;;;;;11.80;8.43;;;1.50;99.90;;;;;;5089330;28;20227;-72
2023/03/16 01:26:46;;;;;;;10.53;7.47;;;1.50;99.90;;;;;;5089388;28;20191;-72
2023/03/16 01:29:12;;;;;;;9.97;8.37;;;1.50;99.90;;;;;;5089264;28;20323;-72
2023/03/16 01:31:38;;;;;;;11.43;8.10;;;1.50;99.90;;;;;;5087726;28;20273;-73
2023/03/16 01:34:04;;;;;;;12.40;9.52;;;1.50;99.90;;;;;;5089365;28;20182;-72
2023/03/16 01:36:33;;;;;;;17.20;9.80;;;1.50;99.90;;;;;;5089259;28;20319;-72
2023/03/16 01:38:59;;;;;;;13.32;9.73;;;1.60;99.90;;;;;;5089243;28;20444;-72
2023/03/16 01:41:25;;;;;;;12.10;8.47;;;1.50;99.90;;;;;;5089122;28;20206;-72
2023/03/16 01:43:57;;;;;;;13.35;10.23;;;1.50;99.90;;;;;;5087706;28;20428;-72
2023/03/16 01:46:27;;;;;;;13.38;10.27;;;1.60;99.90;;;;;;5089121;28;20297;-72
2023/03/16 01:49:13;;;;;;;14.27;10.45;;;1.60;99.90;;;;;;5087798;28;20253;-72
2023/03/16 01:51:55;;;;;;;13.60;10.40;;;1.60;99.90;;;;;;5090077;28;20174;-72
2023/03/16 01:54:39;;;;;;;14.25;10.63;;;1.60;99.90;;;;;;5089999;28;20186;-72
2023/03/16 01:57:12;;;;;;;14.57;10.30;;;1.60;99.90;;;;;;5089917;28;20166;-72
2023/03/16 01:59:44;;;;;;;15.68;10.65;;;1.50;99.90;;;;;;5089674;28;20198;-72
2023/03/16 02:02:12;;;;;;;14.77;11.27;;;1.50;99.90;;;;;;5087834;28;20217;-71
2023/03/16 02:04:41;;;;;;;16.10;10.82;;;1.50;99.90;;;;;;5089509;28;20183;-72
2023/03/16 02:07:08;;;;;;;14.70;10.85;;;1.60;99.90;;;;;;5089079;28;20593;-72
2023/03/16 02:09:38;;;;;;;16.17;10.70;;;1.50;99.90;;;;;;5089116;28;20599;-72
2023/03/16 02:12:05;;;;;;;12.90;10.27;;;1.50;99.90;;;;;;5088026;28;20277;-73
2023/03/16 02:14:31;;;;;;;13.20;9.75;;;1.60;99.90;;;;;;5087470;28;20291;-72
2023/03/16 02:16:56;;;;;;;16.63;10.90;;;1.60;99.90;;;;;;5087840;28;20722;-72
2023/03/16 02:19:43;;;;;;;16.73;10.27;;;1.60;99.90;;;;;;5088622;28;20217;-72
2023/03/16 02:22:09;;;;;;;15.35;10.45;;;1.60;99.90;;;;;;5088454;28;20487;-71
2023/03/16 02:24:37;;;;;;;14.82;10.60;;;1.70;99.90;;;;;;5087009;28;20659;-71
2023/03/16 02:27:07;;;;;;;15.02;10.27;;;1.60;99.90;;;;;;5087137;28;20178;-71
2023/03/16 02:29:52;;;;;;;13.00;8.98;;;1.60;99.90;;;;;;5088589;28;20242;-71
2023/03/16 02:32:20;;;;;;;14.40;10.70;;;1.60;99.90;;;;;;5088494;28;20251;-71
2023/03/16 02:34:45;;;;;;;14.70;9.00;;;1.60;99.90;;;;;;5088495;28;20278;-71
2023/03/16 02:37:11;;;;;;;13.67;9.97;;;1.60;99.90;;;;;;5087168;28;20281;-71
2023/03/16 02:39:37;;;;;;;19.37;11.03;;;1.50;99.90;;;;;;5088519;28;20194;-71
2023/03/16 02:42:04;;;;;;;14.50;9.97;;;1.50;99.90;;;;;;5087056;28;20468;-71
2023/03/16 02:44:35;;;;;;;14.07;10.60;;;1.40;99.90;;;;;;5087740;28;20269;-71
2023/03/16 02:47:23;;;;;;;13.13;9.35;;;1.40;99.90;;;;;;5088582;28;20199;-71
2023/03/16 02:49:49;;;;;;;16.08;9.82;;;1.40;99.90;;;;;;5088585;28;20200;-71
2023/03/16 02:52:14;;;;;;;13.60;9.10;;;1.40;99.90;;;;;;5087401;28;20194;-71
2023/03/16 02:54:40;;;;;;;17.70;10.03;;;1.40;99.90;;;;;;5088934;28;20210;-71
2023/03/16 02:57:05;;;;;;;13.57;9.43;;;1.50;99.90;;;;;;5087717;28;20251;-71
2023/03/16 02:59:31;;;;;;;16.10;8.53;;;1.40;99.90;;;;;;5087472;28;20256;-71
2023/03/16 03:01:57;;;;;;;12.97;8.60;;;1.50;99.90;;;;;;5087371;28;20258;-71
2023/03/16 03:04:23;;;;;;;13.77;9.47;;;1.50;99.90;;;;;;5089179;28;20304;-71
2023/03/16 03:06:50;;;;;;;15.65;11.23;;;1.50;99.90;;;;;;5087484;28;20191;-72
2023/03/16 03:09:17;;;;;;;15.88;9.23;;;1.60;99.90;;;;;;5088882;28;20210;-71
2023/03/16 03:11:43;;;;;;;10.63;8.40;;;1.60;99.90;;;;;;5070622;28;20278;-71
2023/03/16 03:14:09;;;;;;;12.80;8.87;;;1.50;99.90;;;;;;5088896;28;20274;-72
2023/03/16 03:16:35;;;;;;;13.30;10.30;;;1.50;99.90;;;;;;5088849;28;20413;-71
2023/03/16 03:19:01;;;;;;;16.33;9.40;;;1.50;99.90;;;;;;5088896;28;20265;-72
2023/03/16 03:21:27;;;;;;;12.75;9.80;;;1.50;99.90;;;;;;5088652;28;20248;-71
2023/03/16 03:23:52;;;;;;;13.43;9.93;;;1.40;99.90;;;;;;5088653;28;20202;-71
2023/03/16 03:26:18;;;;;;;14.10;10.40;;;1.40;99.90;;;;;;5088528;28;20171;-72
2023/03/16 03:28:45;;;;;;;13.00;9.65;;;1.40;99.90;;;;;;5073308;28;20186;-72
2023/03/16 03:31:19;;;;;;;14.65;10.10;;;1.30;99.90;;;;;;5092015;28;20553;-72
2023/03/16 03:33:45;;;;;;;12.73;9.65;;;1.30;99.90;;;;;;5091600;28;20711;-72
2023/03/16 03:36:11;;;;;;;16.30;11.17;;;1.30;99.90;;;;;;5090009;28;20202;-72
2023/03/16 03:38:37;;;;;;;16.33;9.05;;;1.30;99.90;;;;;;5091345;28;20277;-72
2023/03/16 03:41:05;;;;;;;12.13;9.50;;;1.40;99.90;;;;;;5091393;28;20770;-72
2023/03/16 03:43:31;;;;;;;16.63;10.50;;;1.40;99.90;;;;;;5091422;28;20253;-72
2023/03/16 03:45:58;;;;;;;13.00;9.30;;;1.40;99.90;;;;;;5091352;28;20723;-72
2023/03/16 03:48:24;;;;;;;13.25;9.52;;;1.40;99.90;;;;;;5091317;28;20683;-72
2023/03/16 03:50:50;;;;;;;14.47;9.97;;;1.40;99.90;;;;;;5090978;28;20229;-72
2023/03/16 03:53:16;;;;;;;11.80;9.03;;;1.50;99.90;;;;;;5089678;28;20950;-72
2023/03/16 03:55:42;;;;;;;13.45;8.93;;;1.50;99.90;;;;;;5089516;28;20430;-72
2023/03/16 03:58:07;;;;;;;14.73;8.67;;;1.50;99.90;;;;;;5089610;28;20189;-72
2023/03/16 04:00:34;;;;;;;10.17;7.37;;;1.40;99.90;;;;;;5090814;28;20209;-72
2023/03/16 04:03:00;;;;;;;12.63;8.93;;;1.40;99.90;;;;;;5090885;28;20671;-72
2023/03/16 04:05:26;;;;;;;10.17;7.70;;;1.40;99.90;;;;;;5090876;28;20193;-72
2023/03/16 04:07:56;;;;;;;7.80;6.75;;;1.40;99.90;;;;;;5089580;28;20305;-72
2023/03/16 04:10:23;;;;;;;8.20;6.18;;;1.40;99.90;;;;;;5089342;28;20217;-72
2023/03/16 04:12:49;;;;;;;6.40;5.22;;;1.40;99.90;;;;;;5090810;28;20615;-72
2023/03/16 04:15:15;;;;;;;4.50;4.10;;;1.40;99.90;;;;;;5090424;28;20215;-72
2023/03/16 04:17:41;;;;;;;6.00;5.40;;;1.50;99.90;;;;;;5089291;28;20792;-72
2023/03/16 04:20:13;;;;;;;6.60;4.53;;;1.60;99.90;;;;;;5090590;28;20694;-72
2023/03/16 04:22:42;;;;;;;6.45;5.38;;;1.60;99.90;;;;;;5090611;28;20475;-71
2023/03/16 04:25:09;;;;;;;5.30;4.78;;;1.60;99.90;;;;;;5089366;28;20184;-71
2023/03/16 04:27:35;;;;;;;7.20;5.10;;;1.60;99.90;;;;;;5089211;28;20209;-71
2023/03/16 04:30:07;;;;;;;6.30;5.20;;;1.50;99.90;;;;;;5089044;28;20202;-72
2023/03/16 04:32:33;;;;;;;7.95;5.22;;;1.50;99.90;;;;;;5090621;28;20416;-72
2023/03/16 04:34:59;;;;;;;10.88;4.93;;;1.50;99.90;;;;;;5090615;28;20232;-72
2023/03/16 04:37:24;;;;;;;5.67;5.03;;;1.50;99.90;;;;;;5089041;28;20206;-72
2023/03/16 04:39:50;;;;;;;5.80;4.40;;;1.60;99.90;;;;;;5089727;28;20206;-72
2023/03/16 04:42:16;;;;;;;6.70;5.80;;;1.60;99.90;;;;;;5090744;28;20294;-71
2023/03/16 04:44:44;;;;;;;4.83;4.33;;;1.70;99.90;;;;;;5090686;28;20183;-71
2023/03/16 04:47:11;;;;;;;4.40;3.72;;;1.80;99.90;;;;;;5090845;28;20836;-72
2023/03/16 04:49:37;;;;;;;4.40;4.00;;;1.80;99.90;;;;;;5072584;28;20206;-72
2023/03/16 04:52:03;;;;;;;4.40;3.73;;;1.80;99.90;;;;;;5090810;28;20689;-71
2023/03/16 04:54:29;;;;;;;3.53;3.17;;;1.80;99.90;;;;;;5090717;28;20263;-71
2023/03/16 04:56:55;;;;;;;7.68;3.67;;;1.80;99.90;;;;;;5090708;28;20218;-72
2023/03/16 04:59:21;;;;;;;4.70;4.20;;;1.80;99.90;;;;;;5090482;28;20244;-72
2023/03/16 05:01:47;;;;;;;6.05;5.22;;;1.70;99.90;;;;;;5072344;28;20222;-72
2023/03/16 05:04:13;;;;;;;4.60;4.15;;;1.70;99.90;;;;;;5090468;28;20273;-72
2023/03/16 05:06:39;;;;;;;6.57;4.70;;;1.60;99.90;;;;;;5088766;28;20279;-71
2023/03/16 05:09:07;;;;;;;3.67;3.00;;;1.60;99.90;;;;;;5088166;28;20293;-71
2023/03/16 05:11:32;;;;;;;4.63;4.22;;;1.70;99.90;;;;;;5089607;28;20269;-71
2023/03/16 05:13:58;;;;;;;6.10;4.80;;;1.60;99.90;;;;;;5089499;28;20265;-72
2023/03/16 05:16:24;;;;;;;5.83;5.03;;;1.70;99.90;;;;;;5089413;28;20198;-72
2023/03/16 05:18:51;;;;;;;8.20;5.00;;;1.60;99.90;;;;;;5089608;28;20245;-72
2023/03/16 05:21:17;;;;;;;6.68;5.30;;;1.60;99.90;;;;;;5089501;28;20211;-71
2023/03/16 05:23:42;;;;;;;5.03;4.60;;;1.60;99.90;;;;;;5087713;28;20183;-72
2023/03/16 05:26:08;;;;;;;5.40;4.33;;;1.60;99.90;;;;;;5087828;28;20236;-72
2023/03/16 05:28:34;;;;;;;4.43;4.03;;;1.60;99.90;;;;;;5087922;28;20278;-71
2023/03/16 05:31:02;;;;;;;5.30;4.13;;;1.50;99.90;;;;;;5088089;28;20759;-71
2023/03/16 05:33:28;;;;;;;4.45;4.05;;;1.50;99.90;;;;;;5087844;28;20178;-72
2023/03/16 05:35:53;;;;;;;4.10;3.70;;;1.50;99.90;;;;;;5089280;28;20250;-73
2023/03/16 05:38:19;;;;;;;4.50;4.10;;;1.40;99.90;;;;;;5089002;28;20227;-71
2023/03/16 05:40:45;;;;;;;4.33;3.80;;;1.50;99.90;;;;;;5087683;28;20238;-71
2023/03/16 05:43:10;;;;;;;4.20;3.80;;;1.50;99.90;;;;;;5089079;28;20188;-71
2023/03/16 05:45:36;;;;;;;4.07;3.67;;;1.60;99.90;;;;;;5089188;28;20258;-71
2023/03/16 05:48:04;;;;;;;9.27;4.83;;;1.60;99.90;;;;;;5089108;28;20408;-71
2023/03/16 05:50:30;;;;;;;5.93;4.38;;;1.60;99.90;;;;;;5086107;28;20602;-71
2023/03/16 05:52:55;;;;;;;4.80;4.30;;;1.60;99.90;;;;;;5087954;28;20182;-71
2023/03/16 05:55:21;;;;;;;7.67;4.50;;;1.60;99.90;;;;;;5088296;28;20659;-71
2023/03/16 05:57:46;;;;;;;5.90;4.00;;;1.70;99.90;;;;;;5086714;28;20184;-71
2023/03/16 06:00:14;;;;;;;5.83;4.33;;;1.80;99.90;;;;;;5088224;28;20203;-71
2023/03/16 06:02:42;;;;;;;9.52;4.70;;;1.80;99.90;;;;;;5086686;28;20215;-71
2023/03/16 06:05:08;;;;;;;5.47;4.75;;;1.90;99.90;;;;;;5087822;28;20269;-71
2023/03/16 06:07:34;;;;;;;9.52;6.07;;;1.90;99.90;;;;;;5086065;28;20558;-71
2023/03/16 06:10:00;;;;;;;12.73;6.53;;;1.90;99.90;;;;;;5087865;28;20257;-71
2023/03/16 06:12:26;;;;;;;11.67;7.33;;;2.00;99.90;;;;;;5088080;28;20184;-71
2023/03/16 06:14:51;;;;;;;9.27;6.13;;;2.00;99.90;;;;;;5088050;28;20461;-71
2023/03/16 06:17:17;;;;;;;10.13;5.87;;;2.10;99.90;;;;;;5088066;28;20203;-71
2023/03/16 06:19:43;;;;;;;7.73;5.17;;;2.20;99.90;;;;;;5087934;28;20211;-71
2023/03/16 06:22:08;;;;;;;7.90;5.30;;;2.30;99.90;;;;;;5087879;28;20595;-71
2023/03/16 06:24:34;;;;;;;9.27;5.77;;;2.70;99.90;;;;;;5086057;28;20241;-71
2023/03/16 06:26:59;;;;;;;6.90;5.20;;;3.20;99.90;;;;;;5087654;28;20190;-71
2023/03/16 06:29:25;;;;;;;4.60;4.20;;;3.80;99.90;;;;;;5087624;28;20748;-70
2023/03/16 06:31:51;;;;;;;4.83;4.30;;;4.20;99.90;;;;;;5087663;28;20195;-70
2023/03/16 06:34:18;;;;;;;5.57;4.10;;;4.80;99.90;;;;;;5086185;28;20277;-70
2023/03/16 06:36:43;;;;;;;7.53;4.77;;;5.60;99.90;;;;;;5087663;28;20523;-71
2023/03/16 06:39:09;;;;;;;5.00;4.37;;;5.70;99.90;;;;;;5087343;28;20547;-71
2023/03/16 06:41:35;;;;;;;4.97;4.13;;;6.10;99.90;;;;;;5087057;28;20645;-71
2023/03/16 06:44:01;;;;;;;6.27;4.43;;;6.30;99.90;;;;;;5087119;28;20265;-71
2023/03/16 06:46:27;;;;;;;7.23;4.50;;;6.10;99.90;;;;;;5086944;28;20186;-70
2023/03/16 06:48:52;;;;;;;5.90;4.10;;;6.20;99.90;;;;;;5085605;28;20428;-71
2023/03/16 06:51:18;;;;;;;7.47;4.67;;;6.10;99.90;;;;;;5087083;28;20485;-70
2023/03/16 06:53:44;;;;;;;6.10;4.07;;;6.30;99.90;;;;;;5087159;28;20189;-71
2023/03/16 06:56:09;;;;;;;5.40;4.30;;;6.00;99.90;;;;;;5086904;28;20187;-70
2023/03/16 06:58:35;;;;;;;5.77;4.23;;;5.80;99.90;;;;;;5085293;28;20237;-71
2023/03/16 07:01:02;;;;;;;6.70;4.27;;;5.70;99.90;;;;;;5086846;28;20458;-71
2023/03/16 07:03:28;;;;;;;20.13;5.03;;;5.80;99.90;;;;;;5090371;28;20189;-70
2023/03/16 07:05:53;;;;;;;14.93;4.97;;;5.50;99.90;;;;;;5091074;28;20412;-71
2023/03/16 07:08:19;;;;;;;8.40;4.63;;;5.50;99.90;;;;;;5091819;28;20210;-72
2023/03/16 07:10:45;;;;;;;6.40;4.87;;;5.50;99.90;;;;;;5090642;28;20719;-72
2023/03/16 07:13:10;;;;;;;7.10;4.47;;;5.90;99.90;;;;;;5091707;28;20181;-73
2023/03/16 07:15:36;;;;;;;5.27;4.07;;;5.80;99.90;;;;;;5089970;28;20194;-72
2023/03/16 07:18:02;;;;;;;5.37;4.00;;;6.00;99.90;;;;;;5090812;28;20178;-72
2023/03/16 07:20:30;;;;;;;4.80;4.30;;;6.10;99.90;;;;;;5089011;28;20206;-71
2023/03/16 07:22:55;;;;;;;5.60;4.30;;;6.20;99.90;;;;;;5088523;28;20526;-72
2023/03/16 07:25:21;;;;;;;5.43;4.67;;;6.30;99.90;;;;;;5090108;28;20943;-72
2023/03/16 07:27:47;;;;;;;6.10;4.60;;;6.40;99.90;;;;;;5089966;28;20190;-72
2023/03/16 07:30:13;;;;;;;4.97;4.13;;;6.60;99.90;;;;;;5089842;28;20618;-72
2023/03/16 07:32:40;;;;;;;5.20;4.23;;;6.70;99.90;;;;;;5088624;28;20779;-72
2023/03/16 07:35:10;;;;;;;6.50;4.63;;;7.10;99.90;;;;;;5088316;28;20429;-72
2023/03/16 07:37:36;;;;;;;5.27;4.20;;;7.30;99.90;;;;;;5088045;28;20444;-72
2023/03/16 07:40:04;;;;;;;5.73;3.70;;;7.10;98.90;;;;;;5088312;28;20450;-72
2023/03/16 07:42:29;;;;;;;7.10;4.87;;;7.10;98.60;;;;;;5089754;28;20998;-72
2023/03/16 07:44:55;;;;;;;7.10;4.60;;;7.60;99.90;;;;;;5090451;28;20497;-72
2023/03/16 07:47:21;;;;;;;5.97;4.33;;;7.80;99.70;;;;;;5090113;28;20215;-72
2023/03/16 07:49:46;;;;;;;5.43;3.30;;;7.90;97.90;;;;;;5089973;28;20198;-72
2023/03/16 07:52:12;;;;;;;5.00;3.80;;;8.00;97.40;;;;;;5089585;28;20278;-72
2023/03/16 07:54:39;;;;;;;4.87;4.00;;;8.10;96.30;;;;;;5087700;28;20186;-72
2023/03/16 07:57:05;;;;;;;6.90;3.70;;;8.00;96.60;;;;;;5089961;28;20416;-72
2023/03/16 07:59:31;;;;;;;9.17;3.73;;;7.80;97.70;;;;;;5089379;28;20437;-72
2023/03/16 08:01:56;;;;;;;5.00;3.80;;;7.80;96.10;;;;;;5089269;28;20210;-72
2023/03/16 08:04:22;;;;;;;7.20;3.97;;;7.90;96.70;;;;;;5089211;28;20431;-72
2023/03/16 08:06:48;;;;;;;5.20;3.60;;;8.20;97.80;;;;;;5089278;28;20186;-73
2023/03/16 08:09:14;;;;;;;3.27;2.97;;;8.30;96.00;;;;;;5089394;28;20233;-73
2023/03/16 08:11:40;;;;;;;5.70;3.23;;;8.60;95.90;;;;;;5089319;28;20190;-72
2023/03/16 08:14:06;;;;;;;5.67;3.53;;;8.20;93.10;;;;;;5088183;28;20175;-73
2023/03/16 08:16:31;;;;;;;5.00;3.40;;;7.90;94.10;;;;;;5089530;28;21304;-72
2023/03/16 08:18:58;;;;;;;4.97;3.80;;;8.10;94.80;;;;;;5089406;28;20199;-72
2023/03/16 08:21:24;;;;;;;4.33;3.20;;;8.30;95.40;;;;;;5087789;28;20886;-72
2023/03/16 08:23:50;;;;;;;8.47;3.60;;;8.10;93.10;;;;;;5089146;28;20449;-72
2023/03/16 08:26:20;;;;;;;4.33;3.70;;;8.60;95.00;;;;;;5087594;28;20179;-72
2023/03/16 08:28:46;;;;;;;5.53;4.07;;;8.90;94.60;;;;;;5087597;28;20412;-72
2023/03/16 08:31:15;;;;;;;4.40;2.97;;;9.20;93.70;;;;;;5089000;28;20412;-72
2023/03/16 08:33:42;;;;;;;3.53;3.23;;;9.10;91.00;;;;;;5089183;28;20420;-72
2023/03/16 08:36:10;;;;;;;3.90;2.90;;;9.50;92.60;;;;;;5089105;28;20924;-72
2023/03/16 08:38:37;;;;;;;3.70;3.40;;;10.00;90.00;;;;;;5089209;28;20440;-72
2023/03/16 08:41:03;;;;;;;5.40;3.23;;;10.20;89.60;;;;;;5089375;28;20419;-72
2023/03/16 08:43:29;;;;;;;5.37;2.73;;;10.20;86.30;;;;;;5087873;28;20612;-72
2023/03/16 08:45:54;;;;;;;3.53;2.33;;;10.10;85.90;;;;;;5089546;28;20523;-72
2023/03/16 08:48:21;;;;;;;4.83;3.40;;;10.40;86.00;;;;;;5089533;28;20686;-72
2023/03/16 08:50:47;;;;;;;4.03;3.30;;;10.50;82.70;;;;;;5089528;28;20717;-72
2023/03/16 08:53:13;;;;;;;3.37;2.73;;;10.60;83.90;;;;;;5089683;28;20416;-72
2023/03/16 08:55:40;;;;;;;4.13;2.93;;;11.10;86.20;;;;;;5087652;28;20424;-72
2023/03/16 08:58:07;;;;;;;3.30;2.73;;;10.70;79.20;;;;;;5089295;28;20413;-72
2023/03/16 09:00:34;;;;;;;3.80;2.87;;;10.20;78.50;;;;;;5089188;28;20742;-72
2023/03/16 09:02:59;;;;;;;5.07;2.73;;;10.70;81.90;;;;;;5087396;28;20479;-72
2023/03/16 09:05:25;;;;;;;6.67;3.30;;;10.80;80.90;;;;;;5087591;28;20413;-72
2023/03/16 09:07:52;;;;;;;5.80;3.40;;;11.40;82.90;;;;;;5088927;28;20194;-72
2023/03/16 09:10:18;;;;;;;5.40;2.60;;;11.30;77.80;;;;;;5088667;28;20944;-72
2023/03/16 09:12:44;;;;;;;5.43;3.47;;;11.50;79.10;;;;;;5088606;28;20421;-72
2023/03/16 09:15:12;;;;;;;6.87;3.23;;;12.10;77.50;;;;;;5088183;28;20420;-72
2023/03/16 09:17:40;;;;;;;5.03;3.10;;;11.50;75.40;;;;;;5086804;28;20416;-72
2023/03/16 09:20:08;;;;;;;2.50;2.10;;;12.10;74.00;;;;;;5086652;28;20491;-71
2023/03/16 09:22:35;;;;;;;3.53;2.50;;;11.50;72.10;;;;;;5086435;28;21079;-71
2023/03/16 09:25:01;;;;;;;2.50;2.30;;;11.10;73.10;;;;;;5087801;28;20413;-71
2023/03/16 09:27:27;;;;;;;3.90;2.40;;;10.40;72.50;;;;;;5088151;28;21238;-72
2023/03/16 09:29:55;;;;;;;3.90;2.63;;;11.40;75.90;;;;;;5087803;28;20226;-72
2023/03/16 09:32:21;;;;;;;4.87;3.03;;;11.80;73.20;;;;;;5088089;28;20927;-72
2023/03/16 09:34:47;;;;;;;3.30;2.40;;;12.20;73.70;;;;;;5088158;28;21403;-72
2023/03/16 09:37:13;;;;;;;7.33;3.10;;;12.30;71.30;;;;;;5087895;28;20433;-72
2023/03/16 09:39:39;;;;;;;6.03;2.50;;;12.60;68.90;;;;;;5087695;28;20201;-72
2023/03/16 09:42:31;;;;;;;3.73;2.50;;;11.70;68.30;;;;;;5087632;28;20998;-72
2023/03/16 09:45:15;;;;;;;4.63;3.17;;;12.30;69.90;;;;;;5087937;28;20673;-72
2023/03/16 09:47:44;;;;;;;3.93;2.73;;;12.20;68.90;;;;;;5085886;28;20423;-72
2023/03/16 09:50:20;;;;;;;4.13;2.50;;;12.20;70.40;;;;;;5087646;28;20986;-71
2023/03/16 09:52:54;;;;;;;3.00;2.53;;;12.20;67.60;;;;;;5087448;28;20409;-72
2023/03/16 09:55:33;;;;;;;5.43;2.33;;;12.10;66.90;;;;;;5087748;28;20842;-72
2023/03/16 09:58:00;;;;;;;2.17;1.97;;;12.30;72.00;;;;;;5088254;28;20444;-72
2023/03/16 10:00:55;;;;;;;2.50;2.30;;;13.00;67.80;;;;;;5087995;28;20478;-72
2023/03/16 10:03:33;;;;;;;5.57;3.17;;;12.50;65.40;;;;;;5083767;28;20440;-72
2023/03/16 10:06:02;;;;;;;4.87;2.70;;;12.60;68.40;;;;;;5088240;28;20985;-72
2023/03/16 10:08:39;;;;;;;5.77;3.10;;;12.80;65.30;;;;;;5088029;28;20755;-72
2023/03/16 10:11:13;;;;;;;3.17;2.87;;;13.40;67.10;;;;;;5088390;28;20462;-72
2023/03/16 10:14:08;;;;;;;4.90;3.47;;;12.90;67.60;;;;;;5088078;28;20406;-72
2023/03/16 10:16:34;;;;;;;7.17;2.93;;;12.90;65.80;;;;;;5087880;28;20524;-71
2023/03/16 10:19:27;;;;;;;3.60;3.20;;;12.60;66.50;;;;;;5087812;28;20549;-72
2023/03/16 10:21:56;;;;;;;7.50;4.67;;;12.10;67.30;;;;;;5086418;28;20212;-73
2023/03/16 10:24:24;;;;;;;3.83;3.40;;;12.50;68.70;;;;;;5088383;28;20420;-72
2023/03/16 10:26:55;;;;;;;9.67;5.60;;;13.10;67.90;;;;;;5087962;28;20463;-72
2023/03/16 10:29:20;;;;;;;4.83;4.00;;;13.00;68.40;;;;;;5087947;28;20438;-71
2023/03/16 10:31:47;;;;;;;4.97;4.20;;;13.40;68.80;;;;;;5087903;28;20479;-72
2023/03/16 10:34:14;;;;;;;5.10;4.00;;;13.20;66.20;;;;;;5087878;28;20692;-72
2023/03/16 10:36:43;;;;;;;4.37;3.50;;;13.70;67.20;;;;;;5087992;28;20795;-71
2023/03/16 10:39:15;;;;;;;3.87;3.40;;;14.00;66.20;;;;;;5091810;28;20459;-72
2023/03/16 10:41:47;;;;;;;8.40;3.50;;;13.80;63.70;;;;;;5091317;28;20457;-72
2023/03/16 10:44:15;;;;;;;4.57;3.70;;;13.90;64.40;;;;;;5073270;28;20458;-72
2023/03/16 10:46:47;;;;;;;5.37;3.53;;;13.80;63.40;;;;;;5091435;28;20500;-72
2023/03/16 10:49:28;;;;;;;3.40;2.87;;;13.60;63.30;;;;;;5091129;28;20427;-71
2023/03/16 10:51:58;;;;;;;3.30;2.90;;;14.00;62.70;;;;;;5091178;28;20917;-71
2023/03/16 10:54:33;;;;;;;3.10;2.70;;;13.70;64.60;;;;;;5091169;28;20474;-72
2023/03/16 10:56:59;;;;;;;2.93;2.37;;;14.00;61.60;;;;;;5089845;28;20419;-72
2023/03/16 10:59:33;;;;;;;4.00;2.60;;;13.80;62.90;;;;;;5089108;28;20497;-72
2023/03/16 11:02:15;;;;;;;2.63;2.43;;;14.50;61.30;;;;;;5091288;28;20921;-72
2023/03/16 11:04:40;;;;;;;3.70;2.90;;;14.70;59.70;;;;;;5088894;28;20451;-71
2023/03/16 11:07:13;;;;;;;3.30;2.97;;;14.80;60.30;;;;;;5090522;28;20832;-72
2023/03/16 11:09:39;;;;;;;4.00;2.50;;;14.80;60.50;;;;;;5089493;28;20251;-71
2023/03/16 11:12:32;;;;;;;2.57;2.20;;;15.00;58.10;;;;;;5088783;28;20841;-72
2023/03/16 11:15:09;;;;;;;4.30;2.60;;;15.20;57.10;;;;;;5086754;28;20258;-72
2023/03/16 11:17:52;;;;;;;3.00;2.70;;;14.90;56.20;;;;;;5090214;28;20412;-72
2023/03/16 11:20:31;;;;;;;3.70;2.60;;;14.90;57.70;;;;;;5088959;28;20448;-72
2023/03/16 11:22:59;;;;;;;3.77;2.37;;;15.10;57.60;;;;;;5088921;28;20501;-72
2023/03/16 11:25:40;;;;;;;2.33;2.13;;;14.50;55.20;;;;;;5088680;28;20424;-72
2023/03/16 11:28:11;;;;;;;3.60;3.00;;;15.40;56.40;;;;;;5088714;28;20469;-72
2023/03/16 11:30:55;;;;;;;4.13;2.40;;;15.40;56.60;;;;;;5090305;28;20432;-73
2023/03/16 11:33:21;;;;;;;3.73;2.90;;;14.90;55.00;;;;;;5090106;28;20400;-72
2023/03/16 11:36:09;;;;;;;2.23;1.77;;;14.90;55.80;;;;;;5090175;28;20791;-72
2023/03/16 11:38:48;;;;;;;3.57;1.93;;;14.90;54.50;;;;;;5088761;28;21050;-72
2023/03/16 11:41:40;;;;;;;3.53;2.30;;;15.30;53.80;;;;;;5090059;28;20467;-72
2023/03/16 11:44:27;;;;;;;2.50;2.13;;;14.60;51.50;;;;;;5090332;28;20408;-72
2023/03/16 11:47:04;;;;;;;2.20;2.00;;;14.30;51.60;;;;;;5088683;28;20420;-73
2023/03/16 11:49:52;;;;;;;3.13;2.27;;;14.60;54.10;;;;;;5089822;28;20443;-72
2023/03/16 11:52:39;;;;;;;5.80;1.63;;;14.70;51.80;;;;;;5089997;28;20482;-72
2023/03/16 11:55:41;;;;;;;2.70;1.90;;;15.00;51.90;;;;;;5089601;28;20534;-72
2023/03/16 11:58:48;;;;;;;2.17;1.97;;;15.40;51.70;;;;;;5089705;28;20428;-72
2023/03/16 12:01:23;;;;;;;3.70;1.80;;;16.10;51.20;;;;;;5089957;28;20967;-72
2023/03/16 12:04:19;;;;;;;3.23;2.20;;;16.30;49.20;;;;;;5089921;28;20408;-72
2023/03/16 12:07:08;;;;;;;2.20;1.73;;;15.90;48.00;;;;;;5060658;28;20421;-72
2023/03/16 12:10:10;;;;;;;5.13;2.67;;;15.40;47.50;;;;;;5089282;28;20424;-72
2023/03/16 12:12:54;;;;;;;3.30;1.77;;;15.80;48.40;;;;;;5089451;28;20472;-72
2023/03/16 12:15:28;;;;;;;2.57;2.10;;;15.50;48.60;;;;;;5089707;28;20401;-72
2023/03/16 12:18:01;;;;;;;6.40;2.13;;;15.50;48.30;;;;;;5089967;28;20418;-72
2023/03/16 12:20:44;;;;;;;3.23;1.90;;;15.50;48.30;;;;;;5090594;28;20477;-72
2023/03/16 12:23:21;;;;;;;2.53;2.00;;;15.60;48.90;;;;;;5089899;28;21037;-72
2023/03/16 12:25:48;;;;;;;3.10;1.90;;;15.00;46.10;;;;;;5089746;28;20443;-72
2023/03/16 12:28:24;;;;;;;2.07;1.87;;;14.80;47.50;;;;;;5089317;28;20422;-72
2023/03/16 12:31:14;;;;;;;6.70;2.40;;;14.80;47.20;;;;;;5092328;28;20439;-72
2023/03/16 12:33:57;;;;;;;5.23;2.43;;;14.90;48.10;;;;;;5090878;28;20420;-72
2023/03/16 12:36:49;;;;;;;7.40;2.30;;;15.10;49.10;;;;;;5090875;28;20813;-72
2023/03/16 12:39:47;;;;;;;3.40;2.30;;;15.10;47.90;;;;;;5090223;28;20446;-72
2023/03/16 12:42:36;;;;;;;6.00;2.80;;;15.00;47.10;;;;;;5089898;28;20468;-72
2023/03/16 12:45:03;;;;;;;2.87;2.00;;;14.70;46.90;;;;;;5089604;28;20480;-72
2023/03/16 12:47:32;;;;;;;4.67;2.43;;;14.40;47.20;;;;;;5087935;28;20447;-72
2023/03/16 12:50:10;;;;;;;3.37;2.13;;;14.60;48.80;;;;;;5088038;28;20437;-71
2023/03/16 12:52:44;;;;;;;2.03;1.70;;;13.90;46.20;;;;;;5087255;28;20424;-71
2023/03/16 12:55:15;;;;;;;2.70;1.93;;;14.30;48.30;;;;;;5087002;28;20910;-72
2023/03/16 12:57:42;;;;;;;2.30;2.10;;;14.50;48.50;;;;;;5088467;28;20415;-71
2023/03/16 13:00:11;;;;;;;2.13;1.80;;;14.40;47.20;;;;;;5088255;28;20438;-71
2023/03/16 13:02:48;;;;;;;8.97;2.57;;;14.40;46.60;;;;;;5088470;28;20468;-71